Time;durP1;ratioP1;P1;durP2;ratioP2;P2;SDS_P1;SDS_P2;PMS_P1;PMS_P2;Temp;Humidity;BMP_temperature;BMP_pressure;BME280_temperature;BME280_humidity;BME280_pressure;Samples;Min_cycle;Max_cycle;Signal;HPM_P1;HPM_P2
2022/07/16 00:06:07;;;;;;;11.90;7.40;;;;;;;17.33;70.85;97657.44;10337527;28;20068;-56
2022/07/16 00:11:06;;;;;;;29.63;16.15;;;;;;;17.26;72.03;97659.41;10371865;28;20033;-56
2022/07/16 00:16:06;;;;;;;;;;;;;;;17.07;74.35;97668.69;10366139;28;20550;-55
2022/07/16 00:21:05;;;;;;;35.67;17.73;;;;;;;16.69;76.75;97667.97;10373148;28;20398;-55
2022/07/16 00:26:04;;;;;;;30.30;18.25;;;;;;;16.49;76.68;97672.00;10374014;28;20136;-56
2022/07/16 00:31:03;;;;;;;;;;;;;;;16.44;76.54;97676.50;10373479;28;20092;-56
2022/07/16 00:36:02;;;;;;;29.23;18.50;;;;;;;16.44;76.39;97657.28;10374006;28;19909;-55
2022/07/16 00:41:01;;;;;;;32.88;18.27;;;;;;;16.46;76.27;97668.56;10372773;28;20080;-56
2022/07/16 00:46:00;;;;;;;;;;;;;;;16.45;76.22;97665.09;10373111;28;20040;-55
2022/07/16 00:50:59;;;;;;;29.40;17.37;;;;;;;16.45;76.39;97674.72;10373039;28;19948;-55
2022/07/16 00:55:58;;;;;;;;;;;;;;;16.43;76.43;97660.81;10372886;28;20456;-56
2022/07/16 01:00:57;;;;;;;26.63;14.93;;;;;;;16.43;76.23;97664.28;10372377;28;20303;-56
2022/07/16 01:05:56;;;;;;;;;;;;;;;16.43;76.03;97661.66;10372475;28;20028;-56
2022/07/16 01:10:57;;;;;;;24.58;14.35;;;;;;;16.47;76.09;97658.06;10372144;28;19944;-56
2022/07/16 01:15:56;;;;;;;19.02;12.20;;;;;;;16.47;76.24;97663.31;10371498;28;20496;-56
2022/07/16 01:20:54;;;;;;;;;;;;;;;16.41;76.78;97660.84;10372215;28;20036;-56
2022/07/16 01:25:53;;;;;;;16.20;9.48;;;;;;;16.25;77.65;97665.59;10371910;28;19917;-55
2022/07/16 01:30:53;;;;;;;14.73;9.35;;;;;;;16.20;77.78;97671.84;10372746;28;20072;-56
2022/07/16 01:35:55;;;;;;;16.13;9.88;;;;;;;16.14;77.82;97664.16;10374237;28;20476;-55
2022/07/16 01:40:54;;;;;;;15.95;10.73;;;;;;;16.07;77.68;97669.56;10374644;28;20388;-55
2022/07/16 01:45:54;;;;;;;17.02;10.77;;;;;;;16.00;78.22;97688.06;10374324;28;20095;-55
2022/07/16 01:50:54;;;;;;;16.27;10.60;;;;;;;15.94;78.80;97689.06;10374646;28;20037;-55
2022/07/16 01:55:53;;;;;;;18.00;11.73;;;;;;;15.80;79.13;97685.91;10359290;28;20064;-56
2022/07/16 02:00:52;;;;;;;;;;;;;;;15.77;79.63;97689.41;10332481;28;20052;-56
2022/07/16 02:05:51;;;;;;;36.05;20.50;;;;;;;15.71;79.88;97694.78;10333004;28;20482;-56
2022/07/16 02:10:50;;;;;;;37.92;21.25;;;;;;;15.69;79.54;97693.94;10363046;28;20572;-56
2022/07/16 02:15:49;;;;;;;;;;;;;;;15.70;79.38;97694.84;10374122;28;20477;-55
2022/07/16 02:20:48;;;;;;;26.85;15.35;;;;;;;15.71;79.37;97693.94;10373710;28;19909;-56
2022/07/16 02:25:49;;;;;;;21.35;13.52;;;;;;;15.66;79.51;97687.03;10362268;28;20040;-55
2022/07/16 02:30:49;;;;;;;22.25;14.05;;;;;;;15.59;80.16;97693.28;10344376;28;20057;-59
2022/07/16 02:35:48;;;;;;;21.65;13.95;;;;;;;15.54;80.38;97694.31;10348504;28;20069;-55
2022/07/16 02:40:47;;;;;;;;;;;;;;;15.47;80.92;97704.03;10348266;28;20623;-55
2022/07/16 02:45:46;;;;;;;22.40;14.17;;;;;;;15.30;81.46;97693.09;10364891;28;20397;-55
2022/07/16 02:50:45;;;;;;;;;;;;;;;15.34;81.62;97697.34;10378647;28;20064;-55
2022/07/16 02:55:44;;;;;;;15.90;10.43;;;;;;;15.35;81.18;97709.53;10364432;28;19956;-55
2022/07/16 03:00:43;;;;;;;;;;;;;;;15.32;81.29;97710.47;10336254;28;20061;-55
2022/07/16 03:05:42;;;;;;;32.92;18.08;;;;;;;15.23;81.85;97714.13;10335725;28;19997;-55
2022/07/16 03:10:41;;;;;;;46.42;28.40;;;;;;;15.23;81.99;97706.28;10362309;28;20076;-55
2022/07/16 03:15:40;;;;;;;47.85;28.85;;;;;;;15.26;81.93;97697.50;10376705;28;20070;-55
2022/07/16 03:20:39;;;;;;;52.65;30.15;;;;;;;15.18;82.17;97709.88;10376307;28;20025;-56
2022/07/16 03:25:38;;;;;;;56.20;31.83;;;;;;;15.14;81.74;97711.69;10375654;28;20079;-55
2022/07/16 03:30:37;;;;;;;60.17;34.35;;;;;;;15.08;81.43;97709.19;10376481;28;20040;-55
2022/07/16 03:35:36;;;;;;;62.65;37.42;;;;;;;15.18;81.59;97713.34;10373006;28;20060;-55
2022/07/16 03:40:35;;;;;;;;;;;;;;;15.24;81.24;97718.44;10375299;28;20057;-55
2022/07/16 03:45:34;;;;;;;71.00;43.58;;;;;;;15.34;80.94;97716.53;10375614;28;19912;-55
2022/07/16 03:50:33;;;;;;;64.65;40.38;;;;;;;15.44;80.66;97714.56;10375162;28;20385;-55
2022/07/16 03:55:32;;;;;;;;;;;;;;;15.46;81.01;97718.03;10374877;28;20074;-55
2022/07/16 04:00:30;;;;;;;137.45;76.68;;;;;;;15.52;80.76;97717.88;10374805;28;19951;-55
2022/07/16 04:05:29;;;;;;;;;;;;;;;15.54;81.04;97726.53;10374404;28;20033;-55
2022/07/16 04:10:28;;;;;;;137.20;79.32;;;;;;;15.40;81.40;97724.22;10374173;28;19956;-55
2022/07/16 04:15:27;;;;;;;;;;;;;;;15.42;81.95;97732.91;10375728;28;20040;-55
2022/07/16 04:20:26;;;;;;;119.40;70.80;;;;;;;15.44;82.08;97741.56;10373468;28;19913;-55
2022/07/16 04:25:25;;;;;;;99.97;62.75;;;;;;;15.50;81.81;97724.88;10373603;28;20028;-55
2022/07/16 04:30:24;;;;;;;;;;;;;;;15.68;81.48;97729.72;10374409;28;20511;-55
2022/07/16 04:35:23;;;;;;;94.43;56.90;;;;;;;15.87;81.06;97739.81;10373018;28;20394;-55
2022/07/16 04:40:22;;;;;;;;;;;;;;;16.00;80.88;97748.28;10373004;28;20080;-55
2022/07/16 04:45:20;;;;;;;63.95;39.42;;;;;;;16.09;80.74;97743.69;10373220;28;19920;-55
2022/07/16 04:50:20;;;;;;;61.50;41.20;;;;;;;16.33;79.91;97744.00;10373175;28;20040;-55
2022/07/16 04:55:18;;;;;;;;;;;;;;;16.51;79.49;97746.16;10372379;28;20056;-55
2022/07/16 05:00:17;;;;;;;52.27;32.73;;;;;;;16.57;79.13;97731.19;10370704;28;19923;-55
2022/07/16 05:05:19;;;;;;;;;;;;;;;16.78;79.06;97755.97;10370248;28;20029;-55
2022/07/16 05:10:18;;;;;;;49.83;32.58;;;;;;;16.81;79.42;97740.19;10371036;28;19951;-55
2022/07/16 05:15:18;;;;;;;;;;;;;;;17.02;78.84;97744.00;10373509;28;20071;-55
2022/07/16 05:20:17;;;;;;;47.83;33.10;;;;;;;17.21;78.51;97737.34;10371412;28;19955;-55
2022/07/16 05:25:16;;;;;;;42.42;29.48;;;;;;;17.45;78.04;97743.69;10371670;28;20319;-55
2022/07/16 05:30:15;;;;;;;32.05;22.73;;;;;;;17.61;76.93;97732.72;10370609;28;20068;-55
2022/07/16 05:35:16;;;;;;;27.75;21.42;;;;;;;18.03;76.05;97748.94;10373298;28;20095;-55
2022/07/16 05:40:15;;;;;;;26.02;18.35;;;;;;;18.21;74.83;97749.31;10370370;28;20091;-55
2022/07/16 05:45:14;;;;;;;27.45;17.48;;;;;;;18.52;73.75;97751.78;10370211;28;20488;-55
2022/07/16 05:50:13;;;;;;;28.65;18.25;;;;;;;18.81;73.04;97750.84;10370247;28;20543;-55
2022/07/16 05:55:12;;;;;;;27.63;17.65;;;;;;;19.08;71.33;97748.16;10360901;28;20041;-55
2022/07/16 06:00:12;;;;;;;25.17;17.95;;;;;;;19.34;69.28;97750.72;10330171;28;20060;-55
2022/07/16 06:05:11;;;;;;;24.98;16.98;;;;;;;19.54;68.70;97752.63;10329946;28;20048;-55
2022/07/16 06:10:10;;;;;;;26.38;15.00;;;;;;;19.85;67.68;97757.63;10329706;28;20107;-55
2022/07/16 06:15:10;;;;;;;25.55;16.20;;;;;;;20.13;65.49;97758.31;10330541;28;20068;-55
2022/07/16 06:20:10;;;;;;;21.02;14.07;;;;;;;20.44;65.38;97744.78;10333366;28;20489;-55
2022/07/16 06:25:10;;;;;;;23.90;14.73;;;;;;;20.71;62.65;97742.81;10337384;28;20483;-56
2022/07/16 06:30:09;;;;;;;21.42;14.02;;;;;;;20.95;61.66;97735.63;10338669;28;20065;-55
2022/07/16 06:35:09;;;;;;;20.35;13.20;;;;;;;21.27;61.12;97736.88;10340338;28;20445;-55
2022/07/16 06:40:09;;;;;;;16.88;13.57;;;;;;;21.49;58.83;97742.03;10359638;28;20543;-56
2022/07/16 06:45:09;;;;;;;19.33;13.50;;;;;;;21.74;57.91;97735.66;10381181;28;20067;-55
2022/07/16 06:50:09;;;;;;;17.45;11.80;;;;;;;22.06;57.44;97726.25;10380661;28;20053;-56
2022/07/16 06:55:08;;;;;;;15.80;9.57;;;;;;;22.34;55.39;97720.47;10380506;28;20060;-56
2022/07/16 07:00:07;;;;;;;18.35;9.95;;;;;;;22.52;53.54;97728.41;10380498;28;20031;-56
2022/07/16 07:05:07;;;;;;;10.55;8.00;;;;;;;22.76;52.42;97726.34;10380644;28;20067;-56
2022/07/16 07:10:06;;;;;;;13.57;8.30;;;;;;;22.89;50.42;97714.22;10378733;28;20041;-56
2022/07/16 07:15:06;;;;;;;12.57;9.68;;;;;;;23.20;51.45;97731.16;10379767;28;20061;-55
2022/07/16 07:20:08;;;;;;;15.88;9.18;;;;;;;23.52;51.06;97732.13;10380075;28;20059;-56
2022/07/16 07:25:07;;;;;;;13.05;8.30;;;;;;;23.82;51.23;97728.75;10379283;28;20064;-56
2022/07/16 07:30:08;;;;;;;14.32;10.13;;;;;;;24.14;51.34;97732.22;10376145;28;20060;-56
2022/07/16 07:35:07;;;;;;;14.27;10.63;;;;;;;24.33;50.57;97740.03;10376488;28;20064;-56
2022/07/16 07:40:07;;;;;;;14.23;9.65;;;;;;;24.61;49.83;97730.50;10374237;28;20091;-56
2022/07/16 07:45:07;;;;;;;18.35;11.85;;;;;;;24.86;49.06;97743.19;10375657;28;20487;-56
2022/07/16 07:50:08;;;;;;;18.20;11.32;;;;;;;25.06;48.41;97734.06;10375727;28;20060;-56
2022/07/16 07:55:08;;;;;;;21.08;11.25;;;;;;;25.36;48.13;97741.09;10366844;28;20064;-56
2022/07/16 08:00:09;;;;;;;14.57;9.60;;;;;;;25.62;47.04;97742.19;10373686;28;20060;-56
2022/07/16 08:05:09;;;;;;;16.58;9.60;;;;;;;25.89;46.54;97736.94;10374820;28;20483;-56
2022/07/16 08:10:09;;;;;;;12.70;9.05;;;;;;;26.25;46.48;97741.72;10373889;28;20079;-56
2022/07/16 08:15:09;;;;;;;11.15;7.22;;;;;;;26.56;45.57;97745.91;10373790;28;20056;-56
2022/07/16 08:20:10;;;;;;;10.10;6.40;;;;;;;26.83;44.69;97739.72;10372801;28;20061;-56
2022/07/16 08:30:28;;;;;;;6.53;4.82;;;;;;;27.20;43.88;97730.06;10374244;28;20472;-56
2022/07/16 08:35:27;;;;;;;4.20;3.63;;;;;;;27.28;41.99;97726.84;10373201;28;20060;-56
2022/07/16 08:40:26;;;;;;;10.45;4.10;;;;;;;27.53;41.68;97726.03;10372189;28;20087;-56
2022/07/16 08:45:25;;;;;;;5.65;4.40;;;;;;;27.74;40.49;97733.47;10372196;28;20492;-56
2022/07/16 08:50:24;;;;;;;5.82;4.50;;;;;;;27.94;39.46;97734.69;10372249;28;20543;-56
2022/07/16 08:55:24;;;;;;;5.70;4.60;;;;;;;27.99;38.44;97738.75;10373376;28;20449;-56
2022/07/16 09:00:23;;;;;;;6.10;4.20;;;;;;;28.25;38.23;97728.03;10372694;28;20067;-56
2022/07/16 09:05:24;;;;;;;7.07;4.22;;;;;;;28.49;39.25;97729.84;10373607;28;20056;-56
2022/07/16 09:10:34;;;;;;;6.97;4.57;;;;;;;28.67;39.44;97728.50;10372213;28;20052;-56
2022/07/16 09:15:37;;;;;;;5.38;3.92;;;;;;;28.83;38.22;97723.69;10372361;28;20067;-56
2022/07/16 09:20:38;;;;;;;5.00;4.22;;;;;;;29.00;37.11;97726.91;10372148;28;20056;-56
2022/07/16 09:25:56;;;;;;;5.00;4.20;;;;;;;29.02;36.95;97731.16;10371989;28;20060;-56
2022/07/16 09:30:55;;;;;;;9.40;4.33;;;;;;;29.17;37.41;97722.91;10374991;28;20067;-56
2022/07/16 09:36:06;;;;;;;4.78;3.65;;;;;;;29.24;36.67;97721.47;10375694;28;20029;-56
2022/07/16 09:41:09;;;;;;;7.18;4.18;;;;;;;29.33;36.92;97725.28;10374946;28;20109;-56
2022/07/16 09:46:14;;;;;;;4.47;3.03;;;;;;;29.27;35.33;97722.13;10374896;28;20056;-56
2022/07/16 09:51:13;;;;;;;5.20;3.20;;;;;;;29.43;34.56;97721.75;10374557;28;20056;-56
2022/07/16 09:56:14;;;;;;;5.70;3.15;;;;;;;29.68;34.93;97714.47;10374314;28;20032;-56
2022/07/16 10:01:15;;;;;;;3.35;2.58;;;;;;;29.82;32.92;97722.25;10382900;28;20017;-56
2022/07/16 10:06:14;;;;;;;5.88;3.03;;;;;;;29.68;33.12;97720.69;10382802;28;20068;-56
2022/07/16 10:11:13;;;;;;;5.78;3.03;;;;;;;29.89;33.53;97717.28;10382901;28;20082;-56
2022/07/16 10:16:12;;;;;;;5.65;3.13;;;;;;;30.16;31.80;97716.84;10382742;28;20476;-56
2022/07/16 10:21:16;;;;;;;5.47;3.33;;;;;;;30.05;32.78;97719.59;10382929;28;20454;-56
2022/07/16 10:26:20;;;;;;;9.80;4.80;;;;;;;29.93;32.90;97692.00;10381976;28;20052;-56
2022/07/16 10:31:38;;;;;;;3.47;3.17;;;;;;;30.07;32.57;97720.28;10378871;28;20715;-56
2022/07/16 10:36:55;;;;;;;4.73;2.90;;;;;;;30.06;33.09;97714.09;10377971;28;20052;-56
2022/07/16 10:42:03;;;;;;;6.80;3.97;;;;;;;30.02;32.85;97712.63;10378684;28;20076;-56
2022/07/16 10:47:03;;;;;;;3.15;2.83;;;;;;;30.05;33.08;97717.75;10377637;28;20068;-56
2022/07/16 10:52:14;;;;;;;4.85;3.08;;;;;;;30.09;32.53;97718.34;10377787;28;20064;-56
2022/07/16 10:57:13;;;;;;;3.90;3.10;;;;;;;30.03;32.96;97709.00;10377362;28;20064;-57
2022/07/16 11:02:14;;;;;;;7.45;3.00;;;;;;;29.97;32.51;97708.63;10377411;28;20453;-56
2022/07/16 11:07:22;;;;;;;3.67;2.70;;;;;;;29.95;31.80;97710.59;10375950;28;20069;-57
2022/07/16 11:12:31;;;;;;;6.97;3.10;;;;;;;30.00;32.14;97713.72;10376608;28;20536;-57
2022/07/16 11:17:30;;;;;;;7.43;2.97;;;;;;;30.04;30.79;97713.34;10376848;28;20068;-56
2022/07/16 11:22:30;;;;;;;3.40;2.40;;;;;;;30.16;31.46;97719.53;10376305;28;20457;-56
2022/07/16 11:27:32;;;;;;;7.93;2.67;;;;;;;30.00;30.43;97716.41;10376355;28;20476;-56
2022/07/16 11:32:31;;;;;;;2.95;2.65;;;;;;;29.86;30.56;97715.72;10376398;28;20060;-56
2022/07/16 11:37:46;;;;;;;4.78;2.40;;;;;;;29.99;30.52;97720.06;10376055;28;20076;-57
2022/07/16 11:42:59;;;;;;;5.88;2.53;;;;;;;30.00;29.70;97724.44;10375960;28;20064;-57
2022/07/16 11:48:17;;;;;;;3.78;2.58;;;;;;;30.04;29.34;97726.72;10376000;28;20053;-57
2022/07/16 11:53:29;;;;;;;5.72;2.70;;;;;;;30.12;29.29;97731.50;10375879;28;20064;-56
2022/07/16 11:58:28;;;;;;;3.72;2.47;;;;;;;29.99;29.52;97739.66;10375111;28;20060;-56
2022/07/16 12:03:27;;;;;;;5.65;2.63;;;;;;;30.00;30.03;97729.78;10374874;28;20498;-56
2022/07/16 12:08:27;;;;;;;2.67;2.45;;;;;;;30.25;29.53;97739.34;10374554;28;20529;-57
2022/07/16 12:13:26;;;;;;;3.40;2.58;;;;;;;30.28;29.24;97734.63;10374322;28;20071;-56
2022/07/16 12:18:25;;;;;;;2.55;2.10;;;;;;;30.09;28.94;97745.09;10375026;28;20508;-56
2022/07/16 12:23:32;;;;;;;2.83;2.30;;;;;;;30.05;28.96;97727.63;10373758;28;20068;-56
2022/07/16 12:28:32;;;;;;;4.28;2.35;;;;;;;30.09;28.75;97724.56;10375317;28;20532;-56
2022/07/16 12:33:31;;;;;;;3.92;2.50;;;;;;;29.91;29.49;97737.59;10376989;28;20037;-57
2022/07/16 12:39:04;;;;;;;2.95;2.60;;;;;;;30.00;29.23;97727.97;10377287;28;20071;-56
2022/07/16 12:44:07;;;;;;;3.28;2.45;;;;;;;29.98;29.01;97734.44;10331127;28;20068;-57
2022/07/16 12:49:09;;;;;;;4.95;2.53;;;;;;;29.95;29.63;97732.84;10335817;28;20083;-57
2022/07/16 12:54:09;;;;;;;4.40;2.67;;;;;;;30.10;29.73;97725.41;10342994;28;20060;-56
2022/07/16 12:59:08;;;;;;;3.35;2.55;;;;;;;30.19;29.14;97724.66;10376751;28;20057;-57
2022/07/16 13:04:08;;;;;;;5.10;2.35;;;;;;;30.26;29.13;97719.66;10374988;28;20033;-57
2022/07/16 13:09:08;;;;;;;3.78;2.10;;;;;;;30.22;28.95;97721.72;10375826;28;20071;-56
2022/07/16 13:14:09;;;;;;;4.03;2.80;;;;;;;30.19;29.57;97721.97;10373844;28;20036;-57
2022/07/16 13:19:08;;;;;;;4.07;2.88;;;;;;;30.45;29.38;97710.97;10375493;28;20534;-56
2022/07/16 13:24:06;;;;;;;2.88;2.58;;;;;;;30.53;28.73;97709.34;10375525;28;20578;-57
2022/07/16 13:29:05;;;;;;;2.95;2.67;;;;;;;30.59;29.28;97705.31;10373388;28;20500;-57
2022/07/16 13:34:04;;;;;;;4.03;3.40;;;;;;;30.64;28.60;97695.06;10371655;28;20124;-57
2022/07/16 13:39:03;;;;;;;4.10;2.60;;;;;;;30.73;28.79;97709.53;10373564;28;20164;-56
2022/07/16 13:44:03;;;;;;;2.70;2.50;;;;;;;30.70;28.98;97709.75;10370782;28;20084;-57
2022/07/16 13:49:03;;;;;;;5.20;2.75;;;;;;;30.71;28.95;97704.28;10370698;28;20060;-56
2022/07/16 13:54:02;;;;;;;4.20;2.80;;;;;;;30.60;29.73;97707.00;10372250;28;20064;-56
2022/07/16 13:59:01;;;;;;;3.05;2.45;;;;;;;30.75;29.37;97708.41;10367393;28;20029;-56
2022/07/16 14:04:01;;;;;;;4.03;3.50;;;;;;;30.75;29.53;97695.03;10367085;28;20452;-57
2022/07/16 14:09:00;;;;;;;2.97;2.67;;;;;;;30.94;29.17;97693.47;10370927;28;20072;-55
2022/07/16 14:14:00;;;;;;;3.05;2.72;;;;;;;31.10;29.16;97688.50;10370568;28;20025;-55
2022/07/16 14:18:59;;;;;;;3.88;2.70;;;;;;;31.10;28.66;97691.19;10367713;28;20048;-55
2022/07/16 14:23:58;;;;;;;3.25;2.95;;;;;;;31.12;29.21;97685.69;10364237;28;20033;-55
2022/07/16 14:28:57;;;;;;;4.78;2.67;;;;;;;30.88;28.91;97675.22;10369946;28;20117;-56
2022/07/16 14:33:56;;;;;;;4.15;2.30;;;;;;;30.93;28.57;97689.91;10369110;28;20530;-56
2022/07/16 14:38:55;;;;;;;3.35;2.63;;;;;;;30.81;29.13;97690.13;10370617;28;20069;-57
2022/07/16 14:43:54;;;;;;;3.95;2.97;;;;;;;30.52;30.22;97698.78;10379258;28;20112;-57
2022/07/16 14:48:53;;;;;;;6.22;2.90;;;;;;;30.45;30.70;97684.22;10377716;28;20069;-57
2022/07/16 14:53:52;;;;;;;3.17;2.72;;;;;;;30.45;29.81;97686.88;10373176;28;20028;-57
2022/07/16 14:58:51;;;;;;;3.90;3.08;;;;;;;30.23;30.43;97679.72;10378128;28;20463;-58
2022/07/16 15:03:50;;;;;;;3.15;2.40;;;;;;;30.29;30.56;97680.09;10376883;28;20409;-57
2022/07/16 15:08:49;;;;;;;4.28;2.80;;;;;;;30.04;30.92;97686.59;10378018;28;20073;-55
2022/07/16 15:13:48;;;;;;;3.50;2.85;;;;;;;29.95;31.19;97686.50;10377455;28;20044;-55
2022/07/16 15:18:47;;;;;;;4.80;2.85;;;;;;;29.71;31.18;97684.81;10377106;28;20060;-55
2022/07/16 15:23:46;;;;;;;8.77;5.68;;;;;;;29.53;32.03;97678.25;10371494;28;20035;-55
2022/07/16 15:28:45;;;;;;;5.82;4.05;;;;;;;29.50;32.22;97679.34;10377250;28;20041;-55
2022/07/16 15:33:44;;;;;;;4.93;3.05;;;;;;;29.42;32.14;97689.81;10376582;28;20064;-56
2022/07/16 15:38:45;;;;;;;6.53;3.47;;;;;;;29.37;32.32;97679.50;10375561;28;20072;-55
2022/07/16 15:43:45;;;;;;;4.90;3.92;;;;;;;29.37;32.15;97679.50;10376375;28;20064;-55
2022/07/16 15:48:44;;;;;;;13.93;6.78;;;;;;;29.35;32.20;97686.78;10375625;28;20068;-56
2022/07/16 15:53:44;;;;;;;7.07;4.50;;;;;;;29.30;32.74;97680.94;10374390;28;20029;-56
2022/07/16 15:58:43;;;;;;;7.88;3.97;;;;;;;29.30;32.37;97683.63;10372291;28;20468;-56
2022/07/16 16:03:42;;;;;;;3.85;3.15;;;;;;;28.95;33.08;97679.16;10375030;28;20388;-56
2022/07/16 16:08:41;;;;;;;5.28;3.33;;;;;;;29.04;33.00;97685.59;10375811;28;20048;-56
2022/07/16 16:13:40;;;;;;;17.35;9.93;;;;;;;28.98;33.06;97683.41;10373416;28;20079;-55
2022/07/16 16:18:40;;;;;;;5.55;3.45;;;;;;;28.91;33.25;97687.53;10374003;28;20041;-55
2022/07/16 16:23:39;;;;;;;3.75;3.20;;;;;;;28.89;33.30;97684.97;10374622;28;20080;-55
2022/07/16 16:28:38;;;;;;;5.40;3.50;;;;;;;28.83;33.57;97680.13;10369825;28;20047;-55
2022/07/16 16:33:37;;;;;;;6.70;4.72;;;;;;;28.88;33.64;97693.97;10374071;28;20102;-56
2022/07/16 16:38:36;;;;;;;7.45;4.63;;;;;;;28.83;33.64;97696.16;10373168;28;20526;-56
2022/07/16 16:43:35;;;;;;;7.30;4.93;;;;;;;28.80;34.58;97693.69;10374334;28;20094;-56
2022/07/16 16:48:34;;;;;;;8.00;5.03;;;;;;;28.73;34.93;97687.13;10373881;28;20045;-56
2022/07/16 16:53:34;;;;;;;6.30;3.72;;;;;;;28.78;34.56;97688.47;10373943;28;20520;-56
2022/07/16 16:58:33;;;;;;;6.90;4.50;;;;;;;28.73;34.91;97685.28;10367680;28;20069;-56
2022/07/16 17:03:32;;;;;;;7.30;3.92;;;;;;;28.60;34.81;97692.50;10372082;28;20071;-56
2022/07/16 17:08:31;;;;;;;11.23;5.15;;;;;;;28.45;35.38;97703.38;10370982;28;20064;-56
2022/07/16 17:13:31;;;;;;;8.73;4.30;;;;;;;28.42;35.54;97695.59;10372679;28;20439;-56
2022/07/16 17:18:30;;;;;;;5.13;3.38;;;;;;;28.43;35.32;97701.75;10372900;28;20556;-56
2022/07/16 17:23:29;;;;;;;4.78;3.00;;;;;;;28.20;35.25;97700.84;10374396;28;20064;-56
2022/07/16 17:28:28;;;;;;;7.30;3.50;;;;;;;27.93;36.17;97701.00;10365479;28;20490;-56
2022/07/16 17:33:27;;;;;;;7.95;4.28;;;;;;;27.75;38.26;97703.16;10371207;28;20029;-56
2022/07/16 17:38:26;;;;;;;7.68;4.63;;;;;;;27.58;39.00;97718.53;10373310;28;20052;-56
2022/07/16 17:43:25;;;;;;;6.45;4.05;;;;;;;27.34;40.41;97715.78;10375462;28;20037;-56
2022/07/16 17:49:51;;;;;;;7.30;4.15;;;;;;;27.07;40.57;97718.53;10374329;28;20436;-56
2022/07/16 17:53:43;;;;;;;6.88;3.75;;;;;;;26.79;41.71;97720.41;10376474;28;20036;-56
2022/07/16 17:58:42;;;;;;;8.60;4.90;;;;;;;26.56;42.03;97724.59;10369429;28;20056;-56
2022/07/16 18:03:40;;;;;;;8.02;4.38;;;;;;;26.30;42.56;97728.13;10372579;28;20041;-55
2022/07/16 18:08:40;;;;;;;5.82;4.35;;;;;;;26.09;42.94;97736.53;10374543;28;20124;-55
2022/07/16 18:13:39;;;;;;;7.88;3.83;;;;;;;25.84;43.33;97737.22;10374229;28;20073;-55
2022/07/16 18:18:38;;;;;;;6.80;4.13;;;;;;;25.66;43.56;97751.69;10382779;28;20071;-56
2022/07/16 18:23:37;;;;;;;6.80;4.15;;;;;;;25.42;44.87;97751.38;10382771;28;20120;-55
2022/07/16 18:28:35;;;;;;;7.63;4.68;;;;;;;25.13;45.96;97754.00;10380617;28;20040;-56
2022/07/16 18:33:34;;;;;;;6.72;4.70;;;;;;;24.86;46.00;97754.69;10374796;28;20037;-55
2022/07/16 18:38:34;;;;;;;14.05;4.68;;;;;;;24.69;46.65;97770.72;10377906;28;20071;-55
2022/07/16 18:43:33;;;;;;;8.30;4.70;;;;;;;24.45;46.90;97783.56;10379370;28;20122;-55
2022/07/16 18:48:33;;;;;;;6.43;4.22;;;;;;;24.25;47.86;97790.88;10379734;28;20051;-55
2022/07/16 18:53:32;;;;;;;5.97;4.45;;;;;;;23.97;48.55;97799.44;10378838;28;20084;-55
2022/07/16 18:58:32;;;;;;;6.35;4.30;;;;;;;23.73;49.68;97806.09;10377315;28;20436;-55
2022/07/16 19:03:32;;;;;;;6.32;4.90;;;;;;;23.51;50.41;97809.00;10372976;28;20072;-55
2022/07/16 19:08:31;;;;;;;6.65;4.47;;;;;;;23.34;50.52;97807.22;10377078;28;20499;-55
2022/07/16 19:13:30;;;;;;;8.98;4.60;;;;;;;23.14;51.63;97803.81;10377485;28;20750;-55
2022/07/16 19:18:29;;;;;;;5.93;4.53;;;;;;;23.00;52.26;97824.84;10377608;28;20087;-55
2022/07/16 19:23:28;;;;;;;8.90;5.60;;;;;;;22.83;53.84;97840.69;10377358;28;20460;-55
2022/07/16 19:28:27;;;;;;;10.07;5.68;;;;;;;22.69;54.30;97852.75;10373943;28;20107;-55
2022/07/16 19:33:26;;;;;;;11.25;6.45;;;;;;;22.49;55.37;97851.06;10371677;28;20403;-55
2022/07/16 19:38:25;;;;;;;11.07;7.38;;;;;;;22.46;55.72;97858.28;10376147;28;20489;-55
2022/07/16 19:43:24;;;;;;;13.32;6.40;;;;;;;22.41;55.93;97862.94;10376068;28;20080;-55
2022/07/16 19:48:23;;;;;;;9.52;6.50;;;;;;;22.32;55.97;97870.38;10370573;28;20131;-55
2022/07/16 19:53:23;;;;;;;8.25;5.72;;;;;;;22.25;56.25;97871.59;10375341;28;20051;-55
2022/07/16 19:58:23;;;;;;;6.72;4.88;;;;;;;22.12;56.41;97878.38;10371654;28;20032;-55
2022/07/16 20:03:22;;;;;;;7.30;4.63;;;;;;;22.04;56.34;97884.03;10371129;28;20102;-55
2022/07/16 20:08:21;;;;;;;5.97;4.15;;;;;;;21.94;56.53;97878.25;10373964;28;20083;-55
2022/07/16 20:13:21;;;;;;;5.43;4.30;;;;;;;21.79;56.94;97881.56;10373256;28;20137;-55
2022/07/16 20:18:20;;;;;;;9.45;5.30;;;;;;;21.63;57.21;97885.81;10374727;28;20504;-55
2022/07/16 20:23:19;;;;;;;12.10;6.60;;;;;;;21.51;59.56;97900.41;10368079;28;20542;-55
2022/07/16 20:28:18;;;;;;;12.07;8.20;;;;;;;21.41;59.64;97901.75;10374122;28;20080;-55
2022/07/16 20:33:17;;;;;;;15.57;8.70;;;;;;;21.34;60.21;97914.34;10368490;28;20068;-55
2022/07/16 20:38:16;;;;;;;16.15;10.85;;;;;;;21.16;62.08;97912.44;10374329;28;20041;-55
2022/07/16 20:43:16;;;;;;;19.17;11.05;;;;;;;20.98;63.46;97916.66;10374478;28;20073;-55
2022/07/16 20:48:15;;;;;;;20.27;11.75;;;;;;;20.90;63.42;97915.19;10374085;28;20064;-55
2022/07/16 20:53:14;;;;;;;16.80;11.15;;;;;;;20.87;63.10;97914.47;10374867;28;20071;-55
2022/07/16 20:58:13;;;;;;;22.13;15.05;;;;;;;20.85;63.19;97924.22;10374045;28;20060;-55
2022/07/16 21:03:12;;;;;;;13.25;9.13;;;;;;;20.75;64.19;97922.84;10367906;28;22182;-55
2022/07/16 21:08:23;;;;;;;14.90;10.23;;;;;;;20.67;64.19;97934.56;10373389;28;20527;-55
2022/07/16 21:13:25;;;;;;;13.95;9.30;;;;;;;20.57;64.51;97935.84;10373247;28;20073;-55
2022/07/16 21:18:24;;;;;;;13.00;9.00;;;;;;;20.52;64.69;97950.09;10372733;28;20064;-55
2022/07/16 21:23:23;;;;;;;20.23;12.85;;;;;;;20.37;65.40;97952.38;10372948;28;20548;-55
2022/07/16 21:28:22;;;;;;;18.52;11.43;;;;;;;20.23;66.69;97958.16;10365217;28;20064;-55
2022/07/16 21:33:21;;;;;;;24.48;16.88;;;;;;;20.10;67.25;97958.69;10370550;28;20352;-55
2022/07/16 21:38:20;;;;;;;21.90;15.13;;;;;;;19.96;68.33;97973.19;10366264;28;20450;-55
2022/07/16 21:43:19;;;;;;;15.52;9.95;;;;;;;19.87;68.57;97979.63;10370509;28;20044;-55
2022/07/16 21:48:18;;;;;;;14.65;8.50;;;;;;;19.81;68.48;97977.25;10372000;28;20508;-55
2022/07/16 21:53:18;;;;;;;10.68;7.28;;;;;;;19.74;68.47;97975.69;10371589;28;20052;-55
2022/07/16 21:58:18;;;;;;;7.93;6.00;;;;;;;19.73;68.91;97975.78;10369778;28;20081;-55
2022/07/16 22:03:16;;;;;;;8.25;6.18;;;;;;;19.72;68.99;97989.84;10372420;28;20064;-55
2022/07/16 22:08:15;;;;;;;10.30;5.72;;;;;;;19.67;68.98;97984.72;10366178;28;20120;-55
2022/07/16 22:13:14;;;;;;;8.07;5.65;;;;;;;19.58;68.95;97990.28;10372218;28;20044;-55
2022/07/16 22:18:13;;;;;;;6.93;5.45;;;;;;;19.52;69.00;97979.97;10370376;28;20029;-55
2022/07/16 22:23:12;;;;;;;8.02;5.72;;;;;;;19.42;69.22;97988.16;10370269;28;20408;-55
2022/07/16 22:28:11;;;;;;;9.02;6.40;;;;;;;19.34;69.67;97987.53;10371420;28;20432;-55
2022/07/16 22:33:10;;;;;;;9.02;6.10;;;;;;;19.20;70.47;98001.13;10372002;28;20095;-55
2022/07/16 22:38:10;;;;;;;11.20;5.97;;;;;;;19.08;70.65;97995.41;10365712;28;20444;-55
2022/07/16 22:43:09;;;;;;;13.38;7.85;;;;;;;19.07;71.75;97993.72;10371575;28;20072;-55
2022/07/16 22:48:09;;;;;;;9.85;6.65;;;;;;;18.95;72.39;97998.44;10370571;28;20115;-55
2022/07/16 22:53:08;;;;;;;9.18;7.45;;;;;;;18.89;72.74;97995.97;10370582;28;20522;-56
2022/07/16 22:58:07;;;;;;;9.57;6.88;;;;;;;18.82;72.88;97981.31;10370514;28;20068;-55
2022/07/16 23:03:07;;;;;;;8.45;6.68;;;;;;;18.80;73.23;98002.38;10373433;28;20375;-55
2022/07/16 23:08:06;;;;;;;8.00;7.20;;;;;;;18.78;73.38;97995.44;10372697;28;20493;-55
2022/07/16 23:13:05;;;;;;;10.63;6.53;;;;;;;18.81;73.31;98003.25;10378952;28;20088;-55
2022/07/16 23:18:04;;;;;;;13.18;7.95;;;;;;;18.79;73.80;98003.28;10377319;28;20116;-56
2022/07/16 23:23:03;;;;;;;12.55;6.82;;;;;;;18.63;74.23;97995.88;10364911;28;20029;-55